< < Back
Terminal Aerodrome Forecast


Current Version              Previous Versions:   1  2  3  4  5  6  7  8  9  

Terminal Aerodrome Forecast

950
FTUS42 KCAE 300200 AAB
TAFCAE
TAF AMD
KCAE 300229Z 3002/3024 06005KT P6SM BKN015 OVC040
     FM300900 01003KT P6SM OVC007
     FM301200 03003KT P6SM SCT020 BKN040
     FM301500 03005KT P6SM SCT040=



Latest METAR

243
SAUS80 KWBC 301300
MTRCAE
METAR KCAE 301256Z 36004KT 10SM FEW003 21/16 A2995 RMK AO2 SLP138
T02060161


USA.gov is the U.S. government's official web portal to all federal, state and local government web resources and services.